Time;durP1;ratioP1;P1;durP2;ratioP2;P2;SDS_P1;SDS_P2;PMS_P1;PMS_P2;Temp;Humidity;BMP_temperature;BMP_pressure;BME280_temperature;BME280_humidity;BME280_pressure;Samples;Min_cycle;Max_cycle;Signal;HPM_P1;HPM_P2
2023/07/03 00:00:31;;;;;;;6.57;5.97;;;15.80;57.50;;;;;;6239711;28;20241;-79
2023/07/03 00:03:38;;;;;;;9.83;6.63;;;15.60;57.90;;;;;;6225286;28;20239;-77
2023/07/03 00:06:41;;;;;;;7.03;6.33;;;15.60;58.10;;;;;;6208054;28;20710;-78
2023/07/03 00:09:46;;;;;;;7.53;6.83;;;15.60;58.00;;;;;;6218908;28;20275;-77
2023/07/03 00:12:50;;;;;;;7.27;6.67;;;15.50;58.20;;;;;;6238224;28;20238;-79
2023/07/03 00:15:59;;;;;;;7.13;6.50;;;15.50;58.20;;;;;;6233679;28;20260;-80
2023/07/03 00:19:03;;;;;;;7.27;6.53;;;15.40;58.40;;;;;;6243571;28;20365;-79
2023/07/03 00:22:06;;;;;;;9.83;6.80;;;15.40;58.80;;;;;;6214910;28;20253;-77
2023/07/03 00:25:10;;;;;;;7.63;6.90;;;15.40;58.70;;;;;;6214208;28;20274;-78
2023/07/03 00:28:13;;;;;;;10.67;6.90;;;15.30;58.70;;;;;;6214884;28;20235;-78
2023/07/03 00:31:18;;;;;;;7.70;7.00;;;15.30;58.90;;;;;;6205114;28;20243;-79
2023/07/03 00:34:21;;;;;;;9.53;6.70;;;15.30;58.90;;;;;;6214598;28;20270;-79
2023/07/03 00:37:24;;;;;;;7.80;6.50;;;15.20;58.90;;;;;;6214363;28;20302;-78
2023/07/03 00:40:28;;;;;;;8.50;7.17;;;15.20;59.10;;;;;;6208394;28;20247;-79
2023/07/03 00:43:33;;;;;;;9.13;6.60;;;15.10;59.20;;;;;;6214224;28;20246;-77
2023/07/03 00:46:39;;;;;;;7.40;6.67;;;15.00;59.50;;;;;;6206424;28;20655;-78
2023/07/03 00:49:42;;;;;;;6.87;6.30;;;15.00;59.50;;;;;;6204906;28;20237;-80
2023/07/03 00:52:51;;;;;;;7.10;6.60;;;15.00;59.70;;;;;;6219189;28;20238;-77
2023/07/03 00:55:54;;;;;;;8.67;6.83;;;14.90;59.70;;;;;;6203588;28;20235;-79
2023/07/03 00:58:58;;;;;;;7.67;6.93;;;14.90;59.90;;;;;;6204899;28;20227;-77
2023/07/03 01:02:09;;;;;;;10.13;6.87;;;14.90;59.90;;;;;;6205282;28;20231;-77
2023/07/03 01:05:17;;;;;;;9.63;7.23;;;14.80;60.00;;;;;;6219203;28;20852;-77
2023/07/03 01:08:21;;;;;;;8.73;6.93;;;14.80;60.00;;;;;;6212881;28;20243;-77
2023/07/03 01:11:24;;;;;;;7.17;6.57;;;14.80;60.10;;;;;;6191043;28;20386;-79
2023/07/03 01:14:29;;;;;;;7.47;6.73;;;14.80;60.20;;;;;;6198799;28;20278;-78
2023/07/03 01:17:35;;;;;;;7.80;7.10;;;14.80;60.30;;;;;;6202895;28;20236;-80
2023/07/03 01:20:41;;;;;;;7.23;6.50;;;14.70;60.40;;;;;;6213339;28;20236;-78
2023/07/03 01:23:52;;;;;;;12.30;7.20;;;14.70;60.40;;;;;;6196616;28;20350;-80
2023/07/03 01:26:57;;;;;;;7.57;6.90;;;14.70;61.30;;;;;;6213545;28;20240;-77
2023/07/03 01:30:02;;;;;;;7.70;7.10;;;14.60;61.50;;;;;;6203247;28;20240;-78
2023/07/03 01:33:07;;;;;;;8.27;6.80;;;14.60;61.40;;;;;;6207629;28;20838;-79
2023/07/03 01:36:12;;;;;;;7.33;6.57;;;14.60;61.20;;;;;;6191872;28;20252;-79
2023/07/03 01:39:15;;;;;;;6.60;6.00;;;14.70;61.30;;;;;;6210510;28;20696;-80
2023/07/03 01:42:21;;;;;;;8.53;7.70;;;14.70;61.30;;;;;;6210302;28;20239;-77
2023/07/03 01:45:25;;;;;;;7.60;6.90;;;14.80;61.30;;;;;;6205537;28;20236;-80
2023/07/03 01:48:32;;;;;;;11.57;7.20;;;14.80;61.20;;;;;;6206124;28;20236;-79
2023/07/03 01:51:54;;;;;;;8.87;7.97;;;14.80;61.30;;;;;;6231178;28;20300;-79
2023/07/03 01:55:04;;;;;;;8.60;7.20;;;14.90;61.30;;;;;;6216805;28;20274;-79
2023/07/03 01:58:19;;;;;;;9.63;7.27;;;14.90;61.20;;;;;;6217656;28;20235;-77
2023/07/03 02:01:27;;;;;;;9.73;7.27;;;14.90;61.10;;;;;;6212045;28;20255;-79
2023/07/03 02:04:34;;;;;;;8.93;7.33;;;15.00;61.30;;;;;;6213197;28;20324;-77
2023/07/03 02:07:39;;;;;;;7.37;6.67;;;15.00;61.20;;;;;;6212342;28;20235;-78
2023/07/03 02:10:43;;;;;;;7.17;6.50;;;15.00;61.30;;;;;;6212648;28;20240;-78
2023/07/03 02:13:49;;;;;;;7.57;6.77;;;15.00;61.40;;;;;;6209738;28;20246;-79
2023/07/03 02:16:53;;;;;;;10.87;7.80;;;14.90;61.40;;;;;;6200933;28;20239;-77
2023/07/03 02:19:56;;;;;;;8.57;7.30;;;14.90;61.70;;;;;;6212787;28;20231;-78
2023/07/03 02:22:59;;;;;;;7.47;6.57;;;15.00;61.20;;;;;;6210248;28;20326;-78
2023/07/03 02:26:02;;;;;;;14.47;7.80;;;15.00;61.00;;;;;;6211535;28;20659;-77
2023/07/03 02:29:07;;;;;;;8.03;7.17;;;15.00;61.20;;;;;;6210710;28;20688;-78
2023/07/03 02:32:12;;;;;;;8.70;7.77;;;15.00;61.40;;;;;;6205918;28;20900;-80
2023/07/03 02:35:15;;;;;;;14.23;7.07;;;15.00;61.30;;;;;;6207495;28;20243;-79
2023/07/03 02:38:18;;;;;;;8.43;7.53;;;15.00;61.30;;;;;;6207766;28;20239;-79
2023/07/03 02:41:22;;;;;;;9.70;7.70;;;15.00;61.40;;;;;;6216442;28;20322;-79
2023/07/03 02:44:27;;;;;;;10.83;7.70;;;15.00;61.40;;;;;;6212285;28;20454;-77
2023/07/03 02:47:34;;;;;;;11.13;7.83;;;15.00;61.40;;;;;;6216343;28;20253;-79
2023/07/03 02:50:37;;;;;;;14.07;7.60;;;15.00;61.60;;;;;;6209871;28;20239;-79
2023/07/03 02:53:40;;;;;;;8.60;7.57;;;15.00;61.60;;;;;;6216234;28;20232;-78
2023/07/03 02:56:43;;;;;;;10.03;7.67;;;15.00;61.80;;;;;;6208881;28;20239;-79
2023/07/03 02:59:48;;;;;;;8.93;7.13;;;15.00;61.70;;;;;;6208495;28;20237;-79
2023/07/03 03:02:51;;;;;;;10.03;7.77;;;15.00;61.60;;;;;;6217026;28;20446;-79
2023/07/03 03:05:55;;;;;;;10.37;7.67;;;15.10;61.40;;;;;;6226323;28;20261;-80
2023/07/03 03:08:58;;;;;;;10.57;7.83;;;15.20;61.20;;;;;;6212397;28;20826;-80
2023/07/03 03:12:01;;;;;;;9.00;7.73;;;15.20;61.10;;;;;;6216928;28;20317;-79
2023/07/03 03:15:07;;;;;;;9.83;7.40;;;15.20;60.90;;;;;;6239993;28;20292;-78
2023/07/03 03:18:12;;;;;;;10.17;7.60;;;15.20;61.20;;;;;;6239366;28;20227;-77
2023/07/03 03:21:15;;;;;;;10.77;7.80;;;15.20;61.10;;;;;;6229853;28;20350;-77
2023/07/03 03:24:20;;;;;;;8.73;7.57;;;15.20;61.00;;;;;;6208148;28;20322;-77
2023/07/03 03:27:23;;;;;;;8.53;7.77;;;15.20;61.10;;;;;;6198400;28;20244;-80
2023/07/03 03:30:27;;;;;;;9.27;7.47;;;15.20;61.30;;;;;;6207198;28;20852;-79
2023/07/03 03:33:31;;;;;;;10.37;7.37;;;15.20;61.50;;;;;;6202091;28;20245;-81
2023/07/03 03:36:37;;;;;;;10.77;8.20;;;15.20;61.60;;;;;;6204855;28;20310;-80
2023/07/03 03:39:40;;;;;;;14.30;8.13;;;15.20;61.50;;;;;;6225005;28;20228;-77
2023/07/03 03:42:43;;;;;;;10.33;7.40;;;15.30;61.40;;;;;;6219171;28;20274;-77
2023/07/03 03:45:56;;;;;;;9.70;7.20;;;15.30;61.40;;;;;;6218482;28;20239;-78
2023/07/03 03:48:59;;;;;;;9.63;7.67;;;15.30;61.10;;;;;;6226670;28;20230;-76
2023/07/03 03:52:02;;;;;;;9.13;6.97;;;15.40;61.00;;;;;;6214433;28;20251;-79
2023/07/03 03:55:06;;;;;;;8.50;7.67;;;15.40;60.90;;;;;;6212992;28;20235;-78
2023/07/03 03:58:10;;;;;;;12.57;8.00;;;15.50;60.80;;;;;;6220916;28;20317;-77
2023/07/03 04:01:15;;;;;;;8.27;6.93;;;15.60;60.70;;;;;;6204192;28;20305;-79
2023/07/03 04:04:18;;;;;;;12.13;6.80;;;15.60;60.40;;;;;;6216989;28;20269;-78
2023/07/03 04:07:22;;;;;;;9.97;7.27;;;15.60;60.60;;;;;;6231283;28;20246;-78
2023/07/03 04:10:25;;;;;;;9.27;7.17;;;15.60;60.90;;;;;;6237022;28;20239;-78
2023/07/03 04:13:28;;;;;;;9.00;7.33;;;15.60;60.80;;;;;;6227642;28;20266;-78
2023/07/03 04:16:33;;;;;;;7.77;7.07;;;15.70;60.40;;;;;;6211668;28;20314;-78
2023/07/03 04:19:36;;;;;;;9.23;7.63;;;15.80;60.70;;;;;;6219111;28;20775;-78
2023/07/03 04:22:40;;;;;;;13.50;7.83;;;15.80;61.00;;;;;;6227687;28;20242;-77
2023/07/03 04:25:43;;;;;;;9.23;7.43;;;15.90;60.40;;;;;;6232905;28;20226;-78
2023/07/03 04:28:46;;;;;;;11.23;6.97;;;16.00;60.40;;;;;;6234273;28;20241;-76
2023/07/03 04:31:51;;;;;;;8.00;7.20;;;16.00;60.40;;;;;;6230520;28;20615;-78
2023/07/03 04:34:54;;;;;;;10.20;7.57;;;16.00;60.50;;;;;;6242887;28;20233;-76
2023/07/03 04:37:57;;;;;;;9.70;7.77;;;16.00;60.90;;;;;;6227714;28;20314;-77
2023/07/03 04:41:00;;;;;;;7.90;7.10;;;16.10;60.40;;;;;;6240109;28;20238;-77
2023/07/03 04:44:04;;;;;;;10.53;7.70;;;16.20;60.40;;;;;;6229737;28;20245;-76
2023/07/03 04:47:09;;;;;;;8.07;7.37;;;16.20;60.40;;;;;;6220330;28;20633;-77
2023/07/03 04:50:14;;;;;;;9.40;7.77;;;16.30;60.60;;;;;;6236995;28;20273;-77
2023/07/03 04:53:20;;;;;;;11.20;7.17;;;16.40;60.70;;;;;;6229009;28;20254;-76
2023/07/03 04:56:25;;;;;;;9.73;8.10;;;16.40;60.90;;;;;;6232460;28;20235;-75
2023/07/03 04:59:28;;;;;;;13.73;8.07;;;16.40;60.40;;;;;;6229500;28;20308;-77
2023/07/03 05:02:32;;;;;;;8.60;7.70;;;16.50;60.20;;;;;;6229907;28;20266;-78
2023/07/03 05:05:37;;;;;;;10.07;8.13;;;16.60;60.20;;;;;;6226367;28;20807;-78
2023/07/03 05:08:40;;;;;;;8.80;7.77;;;16.70;59.90;;;;;;6210899;28;20365;-78
2023/07/03 05:11:43;;;;;;;8.87;8.03;;;16.70;59.80;;;;;;6193507;28;20251;-78
2023/07/03 05:14:47;;;;;;;12.27;7.70;;;16.80;59.40;;;;;;6208180;28;20247;-79
2023/07/03 05:17:54;;;;;;;9.17;7.63;;;16.80;59.20;;;;;;6209752;28;20317;-76
2023/07/03 05:20:58;;;;;;;8.20;7.20;;;16.90;59.50;;;;;;6212491;28;20247;-77
2023/07/03 05:24:02;;;;;;;10.40;7.60;;;17.10;59.60;;;;;;6211715;28;20301;-78
2023/07/03 05:27:06;;;;;;;12.13;8.03;;;17.30;59.40;;;;;;6199266;28;20231;-78
2023/07/03 05:30:10;;;;;;;10.23;7.57;;;17.50;59.00;;;;;;6201079;28;20251;-79
2023/07/03 05:33:15;;;;;;;13.00;7.70;;;17.50;58.20;;;;;;6204925;28;20235;-76
2023/07/03 05:36:19;;;;;;;8.83;7.43;;;17.50;57.90;;;;;;6207056;28;20330;-78
2023/07/03 05:39:22;;;;;;;10.53;8.00;;;17.60;57.50;;;;;;6195500;28;20238;-78
2023/07/03 05:42:25;;;;;;;10.27;8.87;;;17.70;57.40;;;;;;6207064;28;20241;-76
2023/07/03 05:45:29;;;;;;;10.30;8.13;;;17.80;57.70;;;;;;6205429;28;20254;-77
2023/07/03 05:48:33;;;;;;;11.47;7.57;;;17.80;57.70;;;;;;6205472;28;20235;-78
2023/07/03 05:51:36;;;;;;;11.13;8.07;;;17.80;57.20;;;;;;6209833;28;20243;-75
2023/07/03 05:54:42;;;;;;;9.23;7.73;;;17.80;56.40;;;;;;6210939;28;20266;-79
2023/07/03 05:57:45;;;;;;;12.13;8.30;;;17.60;57.00;;;;;;6208922;28;20341;-77
2023/07/03 06:00:48;;;;;;;14.27;8.17;;;17.70;57.00;;;;;;6214662;28;20231;-80
2023/07/03 06:03:53;;;;;;;11.07;8.27;;;17.50;57.40;;;;;;6213793;28;20478;-77
2023/07/03 06:06:57;;;;;;;11.63;7.97;;;17.50;57.30;;;;;;6206611;28;20228;-75
2023/07/03 06:10:00;;;;;;;11.00;7.17;;;17.50;57.10;;;;;;6212715;28;20251;-76
2023/07/03 06:13:04;;;;;;;11.60;7.80;;;17.50;57.40;;;;;;6214960;28;20327;-76
2023/07/03 06:16:07;;;;;;;10.83;7.97;;;17.50;57.30;;;;;;6226720;28;20258;-76
2023/07/03 06:19:12;;;;;;;9.27;7.60;;;17.50;57.00;;;;;;6220647;28;20242;-75
2023/07/03 06:22:15;;;;;;;9.00;7.83;;;17.60;57.10;;;;;;6216743;28;20318;-76
2023/07/03 06:25:18;;;;;;;10.37;7.87;;;17.70;56.30;;;;;;6215567;28;20627;-76
2023/07/03 06:28:21;;;;;;;11.33;7.70;;;17.90;56.20;;;;;;6217600;28;20313;-76
2023/07/03 06:31:25;;;;;;;10.57;7.70;;;18.10;56.40;;;;;;6217213;28;20246;-76
2023/07/03 06:34:30;;;;;;;9.57;7.10;;;18.20;55.90;;;;;;6217024;28;20251;-77
2023/07/03 06:37:33;;;;;;;12.13;7.47;;;18.20;56.70;;;;;;6211664;28;20369;-75
2023/07/03 06:40:37;;;;;;;14.97;7.40;;;18.30;55.90;;;;;;6217712;28;21037;-78
2023/07/03 06:43:40;;;;;;;12.40;7.27;;;18.40;56.00;;;;;;6215685;28;20248;-77
2023/07/03 06:46:44;;;;;;;9.67;6.83;;;18.80;56.20;;;;;;6216119;28;20246;-76
2023/07/03 06:49:48;;;;;;;11.43;7.20;;;19.00;55.40;;;;;;6231905;28;20373;-75
2023/07/03 06:52:52;;;;;;;14.47;6.63;;;19.10;54.80;;;;;;6240045;28;20328;-76
2023/07/03 06:55:57;;;;;;;11.40;6.87;;;18.70;55.00;;;;;;6234169;28;20246;-76
2023/07/03 06:59:01;;;;;;;11.77;7.10;;;18.70;55.20;;;;;;6235352;28;20254;-76
2023/07/03 07:02:05;;;;;;;12.20;7.07;;;18.80;55.60;;;;;;6237274;28;20256;-77
2023/07/03 07:05:11;;;;;;;13.13;6.77;;;18.70;55.40;;;;;;6241231;28;20394;-77
2023/07/03 07:08:16;;;;;;;13.03;6.67;;;18.60;55.20;;;;;;6240237;28;20642;-76
2023/07/03 07:11:22;;;;;;;6.90;6.07;;;18.70;55.00;;;;;;6235191;28;20650;-76
2023/07/03 07:14:25;;;;;;;10.30;6.30;;;18.80;55.60;;;;;;6243427;28;20281;-77
2023/07/03 07:17:28;;;;;;;11.60;6.60;;;18.80;54.80;;;;;;6234423;28;20973;-77
2023/07/03 07:20:54;;;;;;;11.60;7.37;;;18.80;55.40;;;;;;6232557;28;20326;-77
2023/07/03 07:23:59;;;;;;;10.73;6.63;;;18.80;55.30;;;;;;6235116;28;20290;-77
2023/07/03 07:27:05;;;;;;;10.17;6.87;;;18.60;55.20;;;;;;6219005;28;20252;-78
2023/07/03 07:30:09;;;;;;;10.10;6.73;;;18.60;55.20;;;;;;6230699;28;20228;-78
2023/07/03 07:33:12;;;;;;;12.07;6.67;;;18.70;55.50;;;;;;6225894;28;20230;-77
2023/07/03 07:36:18;;;;;;;11.50;6.77;;;19.10;55.30;;;;;;6242534;28;20226;-78
2023/07/03 07:39:22;;;;;;;9.03;6.77;;;19.10;54.70;;;;;;6220718;28;20244;-77
2023/07/03 07:42:25;;;;;;;13.57;7.07;;;19.10;54.40;;;;;;6204276;28;20248;-78
2023/07/03 07:45:28;;;;;;;12.20;6.07;;;19.30;54.50;;;;;;6209047;28;20234;-76
2023/07/03 07:48:31;;;;;;;11.23;6.97;;;19.30;54.40;;;;;;6217479;28;20247;-79
2023/07/03 07:51:39;;;;;;;10.73;6.77;;;19.30;54.70;;;;;;6217847;28;20317;-77
2023/07/03 07:54:43;;;;;;;9.20;6.90;;;19.40;54.10;;;;;;6206651;28;20239;-77
2023/07/03 07:57:46;;;;;;;11.60;7.20;;;19.30;54.50;;;;;;6224446;28;20254;-78
2023/07/03 08:00:52;;;;;;;7.70;6.60;;;19.40;54.30;;;;;;6238229;28;20337;-78
2023/07/03 08:03:56;;;;;;;16.30;7.63;;;19.20;54.70;;;;;;6231459;28;20238;-76
2023/07/03 08:07:02;;;;;;;10.40;6.67;;;19.30;54.70;;;;;;6233514;28;20250;-76
2023/07/03 08:10:05;;;;;;;12.83;6.63;;;19.40;53.90;;;;;;6212690;28;20300;-78
2023/07/03 08:13:08;;;;;;;12.03;6.33;;;19.40;54.00;;;;;;6237423;28;20298;-77
2023/07/03 08:16:13;;;;;;;17.37;6.73;;;19.40;53.70;;;;;;6234348;28;20245;-77
2023/07/03 08:19:16;;;;;;;10.00;6.13;;;19.20;54.40;;;;;;6238054;28;20253;-78
2023/07/03 08:22:21;;;;;;;11.50;6.57;;;19.20;54.10;;;;;;6229774;28;20384;-77
2023/07/03 08:25:24;;;;;;;13.03;6.03;;;19.30;54.80;;;;;;6212591;28;20860;-77
2023/07/03 08:28:27;;;;;;;12.97;7.03;;;19.40;54.20;;;;;;6213205;28;20370;-77
2023/07/03 08:31:30;;;;;;;10.23;5.77;;;19.50;53.90;;;;;;6234057;28;20235;-78
2023/07/03 08:34:33;;;;;;;10.80;5.90;;;19.70;53.60;;;;;;6216595;28;20239;-77
2023/07/03 08:37:38;;;;;;;9.27;6.30;;;19.70;52.80;;;;;;6225457;28;20230;-79
2023/07/03 08:40:42;;;;;;;10.47;6.37;;;19.90;52.90;;;;;;6219046;28;20302;-79
2023/07/03 08:43:48;;;;;;;11.00;6.50;;;19.70;52.70;;;;;;6204413;28;20914;-76
2023/07/03 08:46:53;;;;;;;8.73;6.20;;;19.50;53.00;;;;;;6212783;28;20316;-78
2023/07/03 08:50:16;;;;;;;7.53;6.30;;;19.60;53.90;;;;;;6204456;28;20324;-77
2023/07/03 08:53:38;;;;;;;12.53;6.37;;;19.50;52.60;;;;;;6209753;28;20231;-80
2023/07/03 08:56:42;;;;;;;8.67;5.87;;;19.50;54.00;;;;;;6212703;28;20246;-76
2023/07/03 08:59:45;;;;;;;9.50;6.40;;;19.90;52.80;;;;;;6201735;28;20234;-76
2023/07/03 09:02:56;;;;;;;12.00;6.27;;;20.30;52.50;;;;;;6212402;28;20243;-76
2023/07/03 09:06:09;;;;;;;9.67;6.17;;;20.30;51.80;;;;;;6205056;28;20239;-80
2023/07/03 09:09:22;;;;;;;10.00;5.30;;;20.70;49.70;;;;;;6206406;28;20231;-76
2023/07/03 09:12:30;;;;;;;9.07;5.93;;;20.80;49.80;;;;;;6201774;28;20235;-77
2023/07/03 09:15:38;;;;;;;10.03;5.90;;;21.00;50.30;;;;;;6213673;28;20871;-79
2023/07/03 09:18:47;;;;;;;13.63;5.43;;;21.10;48.90;;;;;;6217994;28;20321;-79
2023/07/03 09:21:53;;;;;;;16.87;5.77;;;20.80;48.00;;;;;;6231973;28;20851;-77
2023/07/03 09:25:02;;;;;;;9.47;5.70;;;20.80;47.50;;;;;;6229739;28;20983;-76
2023/07/03 09:28:10;;;;;;;8.93;5.13;;;20.90;48.60;;;;;;6226221;28;20230;-78
2023/07/03 09:31:13;;;;;;;7.20;4.80;;;21.10;47.30;;;;;;6227814;28;20292;-79
2023/07/03 09:34:16;;;;;;;5.30;4.90;;;21.10;45.60;;;;;;6236269;28;20240;-77
2023/07/03 09:37:20;;;;;;;7.80;4.90;;;21.40;45.20;;;;;;6226273;28;20318;-77
2023/07/03 09:40:32;;;;;;;6.33;5.03;;;21.10;46.20;;;;;;6213507;28;20246;-78
2023/07/03 09:43:44;;;;;;;6.23;4.43;;;21.00;46.40;;;;;;6237198;28;20250;-76
2023/07/03 09:46:47;;;;;;;7.77;5.13;;;21.10;46.00;;;;;;6233304;28;20258;-79
2023/07/03 09:49:51;;;;;;;6.70;4.90;;;20.80;45.30;;;;;;6233659;28;20238;-77
2023/07/03 09:52:56;;;;;;;8.47;4.80;;;20.80;45.90;;;;;;6232056;28;20246;-76
2023/07/03 09:56:17;;;;;;;9.60;4.77;;;20.90;45.80;;;;;;6222545;28;20243;-78
2023/07/03 09:59:20;;;;;;;7.00;4.70;;;21.00;45.90;;;;;;6228861;28;20245;-77
2023/07/03 10:02:24;;;;;;;4.80;4.00;;;21.10;45.00;;;;;;6224534;28;20231;-77
2023/07/03 10:05:32;;;;;;;5.87;4.40;;;21.40;45.30;;;;;;6231973;28;20309;-78
2023/07/03 10:08:42;;;;;;;8.90;4.80;;;21.70;45.20;;;;;;6235032;28;20234;-77
2023/07/03 10:12:02;;;;;;;8.20;4.63;;;21.70;45.10;;;;;;6224358;28;20321;-78
2023/07/03 10:15:09;;;;;;;5.63;4.37;;;21.70;44.70;;;;;;6241051;28;20241;-77
2023/07/03 10:18:18;;;;;;;7.37;5.00;;;21.40;45.50;;;;;;6234769;28;20318;-77
2023/07/03 10:21:22;;;;;;;5.97;4.50;;;21.30;45.50;;;;;;6208516;28;20244;-77
2023/07/03 10:24:26;;;;;;;4.90;4.40;;;21.10;45.30;;;;;;6219725;28;20231;-76
2023/07/03 10:27:32;;;;;;;8.60;4.67;;;20.90;45.90;;;;;;6213602;28;20241;-77
2023/07/03 10:30:39;;;;;;;5.07;4.50;;;21.10;46.50;;;;;;6224290;28;20258;-78
2023/07/03 10:33:46;;;;;;;8.53;4.50;;;21.20;45.60;;;;;;6234032;28;20400;-77
2023/07/03 10:36:55;;;;;;;7.87;4.30;;;20.90;46.50;;;;;;6226925;28;20238;-78
2023/07/03 10:40:02;;;;;;;6.03;4.60;;;20.80;46.70;;;;;;6234472;28;20259;-78
2023/07/03 10:43:12;;;;;;;4.67;4.17;;;20.60;46.40;;;;;;6224087;28;20250;-77
2023/07/03 10:46:20;;;;;;;6.23;4.47;;;20.80;46.70;;;;;;6214945;28;20246;-77
2023/07/03 10:49:29;;;;;;;6.53;4.20;;;21.10;47.10;;;;;;6202502;28;20330;-78
2023/07/03 10:52:39;;;;;;;5.10;4.40;;;21.30;46.30;;;;;;6201415;28;20574;-77
2023/07/03 10:55:49;;;;;;;8.20;4.30;;;21.30;47.00;;;;;;6212172;28;20734;-78
2023/07/03 10:59:03;;;;;;;7.20;4.40;;;21.70;46.20;;;;;;6208483;28;20231;-78
2023/07/03 11:02:17;;;;;;;5.00;3.97;;;21.80;45.00;;;;;;6212402;28;20244;-75
2023/07/03 11:05:25;;;;;;;8.27;4.43;;;21.80;45.80;;;;;;6205661;28;20234;-76
2023/07/03 11:08:39;;;;;;;4.53;4.13;;;22.10;44.70;;;;;;6216956;28;20228;-74
2023/07/03 11:11:58;;;;;;;8.50;4.50;;;22.30;44.80;;;;;;6202330;28;20244;-77
2023/07/03 11:15:19;;;;;;;8.53;4.50;;;22.50;44.80;;;;;;6209712;28;20254;-77
2023/07/03 11:18:41;;;;;;;8.30;4.33;;;21.90;45.00;;;;;;6229106;28;20254;-78
2023/07/03 11:21:54;;;;;;;5.00;4.50;;;21.40;45.90;;;;;;6218113;28;20251;-78
2023/07/03 11:25:12;;;;;;;8.73;4.60;;;21.10;47.00;;;;;;6230620;28;20884;-78
2023/07/03 11:28:23;;;;;;;11.90;4.10;;;21.40;47.00;;;;;;6227449;28;20386;-78
2023/07/03 11:31:30;;;;;;;9.43;4.67;;;21.50;47.00;;;;;;6223871;28;20243;-77
2023/07/03 11:34:37;;;;;;;7.27;4.10;;;21.60;46.70;;;;;;6238854;28;20239;-78
2023/07/03 11:37:46;;;;;;;9.07;3.67;;;21.50;47.00;;;;;;6228211;28;20254;-78
2023/07/03 11:41:09;;;;;;;9.87;4.87;;;21.30;46.80;;;;;;6230860;28;20320;-78
2023/07/03 11:44:33;;;;;;;5.83;4.37;;;20.90;47.30;;;;;;6215037;28;20315;-78
2023/07/03 11:47:38;;;;;;;6.90;4.13;;;20.80;47.90;;;;;;6210850;28;20235;-76
2023/07/03 11:50:41;;;;;;;9.37;4.40;;;20.80;47.70;;;;;;6222433;28;20249;-76
2023/07/03 11:53:48;;;;;;;10.60;3.80;;;20.50;47.60;;;;;;6234319;28;20285;-76
2023/07/03 11:56:57;;;;;;;9.53;4.07;;;20.60;48.40;;;;;;6237762;28;20312;-78
2023/07/03 12:00:19;;;;;;;8.40;3.97;;;21.00;48.40;;;;;;6238471;28;20230;-77
2023/07/03 12:03:49;;;;;;;9.53;4.37;;;21.20;47.90;;;;;;6202676;28;20262;-78
2023/07/03 12:06:53;;;;;;;13.43;4.23;;;21.60;47.70;;;;;;6216538;28;20314;-78
2023/07/03 12:10:36;;;;;;;7.63;4.33;;;21.90;47.20;;;;;;6208979;28;20227;-77
2023/07/03 12:13:54;;;;;;;12.47;4.13;;;21.50;46.70;;;;;;6215331;28;20230;-75
2023/07/03 12:16:58;;;;;;;9.77;4.53;;;21.50;47.10;;;;;;6205229;28;20267;-79
2023/07/03 12:20:10;;;;;;;8.20;4.60;;;21.40;48.50;;;;;;6210398;28;20232;-78
2023/07/03 12:23:13;;;;;;;5.67;3.93;;;21.50;48.00;;;;;;6214579;28;20241;-77
2023/07/03 12:26:19;;;;;;;11.13;4.27;;;21.30;47.10;;;;;;6230797;28;20235;-77
2023/07/03 12:29:22;;;;;;;6.63;3.83;;;21.10;47.20;;;;;;6219193;28;20250;-78
2023/07/03 12:32:27;;;;;;;9.47;4.20;;;21.10;47.40;;;;;;6206370;28;20771;-77
2023/07/03 12:35:36;;;;;;;8.40;4.20;;;21.10;47.30;;;;;;6207604;28;20235;-76
2023/07/03 12:38:39;;;;;;;8.10;4.17;;;21.20;47.20;;;;;;6220037;28;20228;-76
2023/07/03 12:41:43;;;;;;;8.60;4.30;;;21.10;47.50;;;;;;6229816;28;20234;-76
2023/07/03 12:44:47;;;;;;;11.80;4.57;;;21.30;47.90;;;;;;6232322;28;20281;-75
2023/07/03 12:48:01;;;;;;;7.83;3.93;;;21.40;47.10;;;;;;6212046;28;20238;-77
2023/07/03 12:51:08;;;;;;;8.27;3.83;;;21.20;47.50;;;;;;6234011;28;20239;-77
2023/07/03 12:54:13;;;;;;;10.70;4.50;;;21.30;47.70;;;;;;6233139;28;20281;-75
2023/07/03 12:57:16;;;;;;;13.77;4.60;;;21.10;47.50;;;;;;6231485;28;20289;-76
2023/07/03 13:00:30;;;;;;;11.17;4.47;;;21.40;48.70;;;;;;6233004;28;20370;-76
2023/07/03 13:03:38;;;;;;;10.73;4.37;;;21.60;47.90;;;;;;6231615;28;20238;-78
2023/07/03 13:06:44;;;;;;;12.70;4.03;;;21.80;47.90;;;;;;6233651;28;20239;-78
2023/07/03 13:09:48;;;;;;;8.20;4.47;;;21.70;48.50;;;;;;6227429;28;20234;-78
2023/07/03 13:13:07;;;;;;;9.03;4.27;;;21.90;48.40;;;;;;6212124;28;20231;-78
2023/07/03 13:16:17;;;;;;;8.77;4.67;;;22.20;48.20;;;;;;6232543;28;20654;-76
2023/07/03 13:19:33;;;;;;;10.97;4.67;;;22.50;47.90;;;;;;6234747;28;20243;-76
2023/07/03 13:22:37;;;;;;;8.80;4.03;;;22.60;47.60;;;;;;6205887;28;20236;-78
2023/07/03 13:25:51;;;;;;;14.83;4.50;;;22.80;47.70;;;;;;6211825;28;20333;-78
2023/07/03 13:28:58;;;;;;;7.57;4.03;;;22.80;47.80;;;;;;6210290;28;20276;-77
2023/07/03 13:32:15;;;;;;;7.90;4.23;;;22.80;47.00;;;;;;6212188;28;20239;-78
2023/07/03 13:35:28;;;;;;;7.57;4.37;;;22.90;47.30;;;;;;6233729;28;20341;-76
2023/07/03 13:38:34;;;;;;;8.67;4.47;;;23.00;47.20;;;;;;6233474;28;20234;-78
2023/07/03 13:41:38;;;;;;;6.43;4.13;;;23.00;47.50;;;;;;6236815;28;20736;-76
2023/07/03 13:44:41;;;;;;;11.20;4.90;;;23.10;46.90;;;;;;6236778;28;20285;-76
2023/07/03 13:47:44;;;;;;;10.23;4.27;;;22.90;46.80;;;;;;6212769;28;20263;-76
2023/07/03 13:50:49;;;;;;;9.30;4.83;;;22.90;46.90;;;;;;6205301;28;20238;-79
2023/07/03 13:53:54;;;;;;;12.13;4.37;;;22.80;47.00;;;;;;6217054;28;20788;-78
2023/07/03 13:57:12;;;;;;;9.40;4.80;;;22.70;46.40;;;;;;6208270;28;20349;-79
2023/07/03 14:00:16;;;;;;;10.50;4.60;;;22.50;46.90;;;;;;6212768;28;20235;-77
2023/07/03 14:03:20;;;;;;;10.50;4.70;;;22.20;47.00;;;;;;6207964;28;20315;-79
2023/07/03 14:06:23;;;;;;;7.80;4.23;;;22.50;47.50;;;;;;6208741;28;20338;-77
2023/07/03 14:09:28;;;;;;;12.17;4.50;;;22.50;47.20;;;;;;6206639;28;20313;-78
2023/07/03 14:12:31;;;;;;;9.73;4.37;;;22.60;46.90;;;;;;6210792;28;20239;-77
2023/07/03 14:15:36;;;;;;;10.07;4.63;;;22.30;48.00;;;;;;6208521;28;20795;-79
2023/07/03 14:18:39;;;;;;;9.97;4.00;;;22.50;48.50;;;;;;6213645;28;20354;-75
2023/07/03 14:21:43;;;;;;;8.07;4.47;;;22.20;47.90;;;;;;6212851;28;20235;-77
2023/07/03 14:24:49;;;;;;;7.27;4.30;;;22.00;48.10;;;;;;6208144;28;20285;-76
2023/07/03 14:27:52;;;;;;;14.50;5.00;;;22.00;47.70;;;;;;6219817;28;20759;-75
2023/07/03 14:30:56;;;;;;;9.80;4.23;;;22.10;47.90;;;;;;6217977;28;20231;-75
2023/07/03 14:33:59;;;;;;;8.20;4.30;;;22.10;48.70;;;;;;6215820;28;20610;-74
2023/07/03 14:37:03;;;;;;;7.90;4.73;;;22.30;48.30;;;;;;6220866;28;20246;-76
2023/07/03 14:40:11;;;;;;;6.10;4.07;;;22.10;48.50;;;;;;6233792;28;20309;-76
2023/07/03 14:43:17;;;;;;;8.80;4.10;;;22.00;47.60;;;;;;6229900;28;20235;-76
2023/07/03 14:46:20;;;;;;;9.17;4.47;;;21.70;48.30;;;;;;6232291;28;20368;-75
2023/07/03 14:49:23;;;;;;;8.53;4.20;;;21.50;48.00;;;;;;6236933;28;20239;-75
2023/07/03 14:52:35;;;;;;;10.13;5.00;;;21.30;48.00;;;;;;6228008;28;20316;-76
2023/07/03 14:55:39;;;;;;;9.43;4.17;;;21.20;48.00;;;;;;6220696;28;20234;-79
2023/07/03 14:58:42;;;;;;;7.90;4.50;;;21.10;48.00;;;;;;6235099;28;20232;-75
2023/07/03 15:01:45;;;;;;;7.70;4.50;;;21.40;48.40;;;;;;6233683;28;20626;-79
2023/07/03 15:04:49;;;;;;;13.13;4.43;;;21.60;47.90;;;;;;6242864;28;20310;-77
2023/07/03 15:07:52;;;;;;;8.13;4.23;;;21.80;47.90;;;;;;6232508;28;20288;-77
2023/07/03 15:10:57;;;;;;;8.77;4.20;;;21.90;47.60;;;;;;6233074;28;20245;-78
2023/07/03 15:14:00;;;;;;;7.67;4.27;;;22.00;48.20;;;;;;6238053;28;20230;-76
2023/07/03 15:17:04;;;;;;;7.73;4.50;;;22.10;46.50;;;;;;6232936;28;20242;-76
2023/07/03 15:20:08;;;;;;;7.83;4.30;;;21.90;47.70;;;;;;6235797;28;20230;-74
2023/07/03 15:23:12;;;;;;;7.33;4.07;;;21.70;47.50;;;;;;6239153;28;20238;-75
2023/07/03 15:26:16;;;;;;;8.20;4.60;;;21.50;47.60;;;;;;6233116;28;20277;-76
2023/07/03 15:29:19;;;;;;;7.17;4.23;;;21.50;47.80;;;;;;6232223;28;20250;-77
2023/07/03 15:32:22;;;;;;;7.23;3.83;;;21.50;47.50;;;;;;6228516;28;20247;-78
2023/07/03 15:35:26;;;;;;;8.00;3.87;;;21.40;46.70;;;;;;6219521;28;20246;-77
2023/07/03 15:38:29;;;;;;;10.67;3.90;;;21.30;47.00;;;;;;6217539;28;20238;-77
2023/07/03 15:41:34;;;;;;;6.47;4.00;;;21.20;46.50;;;;;;6217287;28;20243;-77
2023/07/03 15:44:37;;;;;;;11.40;4.17;;;21.10;46.60;;;;;;6206386;28;20533;-77
2023/07/03 15:47:40;;;;;;;8.80;4.50;;;21.10;46.80;;;;;;6202636;28;20833;-78
2023/07/03 15:50:56;;;;;;;12.47;4.23;;;21.10;46.30;;;;;;6204665;28;20228;-76
2023/07/03 15:54:00;;;;;;;5.73;4.20;;;21.20;46.80;;;;;;6231386;28;20228;-76
2023/07/03 15:57:05;;;;;;;7.17;3.80;;;21.50;47.40;;;;;;6246853;28;20227;-78
2023/07/03 16:00:09;;;;;;;8.07;4.47;;;21.80;46.80;;;;;;6250195;28;20291;-78
2023/07/03 16:03:12;;;;;;;7.77;4.47;;;21.90;46.80;;;;;;6239801;28;20248;-79